createdAt,value
2022-10-13T00:00:38.737Z,1017.97
2022-10-13T00:01:38.703Z,1017.94
2022-10-13T00:02:38.580Z,1017.95
2022-10-13T00:03:38.515Z,1017.89
2022-10-13T00:04:38.449Z,1017.90
2022-10-13T00:05:38.383Z,1017.92
2022-10-13T00:06:38.317Z,1017.85
2022-10-13T00:07:38.253Z,1017.85
2022-10-13T00:08:38.186Z,1017.88
2022-10-13T00:09:38.122Z,1017.85
2022-10-13T00:10:38.050Z,1017.88
2022-10-13T00:11:37.991Z,1017.88
2022-10-13T00:12:37.927Z,1017.87
2022-10-13T00:13:37.855Z,1017.86
2022-10-13T00:14:37.786Z,1017.89
2022-10-13T00:15:37.752Z,1017.84
2022-10-13T00:16:37.650Z,1017.88
2022-10-13T00:17:37.590Z,1017.85
2022-10-13T00:18:37.519Z,1017.85
2022-10-13T00:19:37.457Z,1017.85
2022-10-13T00:20:37.388Z,1017.84
2022-10-13T00:21:37.327Z,1017.79
2022-10-13T00:22:37.293Z,1017.77
2022-10-13T00:23:37.189Z,1017.78
2022-10-13T00:24:37.125Z,1017.79
2022-10-13T00:25:37.057Z,1017.75
2022-10-13T00:26:36.988Z,1017.76
2022-10-13T00:27:36.928Z,1017.77
2022-10-13T00:28:36.894Z,1017.78
2022-10-13T00:29:36.790Z,1017.78
2022-10-13T00:30:36.723Z,1017.77
2022-10-13T00:31:36.661Z,1017.76
2022-10-13T00:32:36.589Z,1017.80
2022-10-13T00:33:36.526Z,1017.79
2022-10-13T00:34:36.497Z,1017.75
2022-10-13T00:35:36.392Z,1017.76
2022-10-13T00:36:36.322Z,1017.75
2022-10-13T00:37:36.259Z,1017.74
2022-10-13T00:38:36.191Z,1017.76
2022-10-13T00:39:36.128Z,1017.74
2022-10-13T00:40:36.075Z,1017.73
2022-10-13T00:41:35.995Z,1017.73
2022-10-13T00:42:35.927Z,1017.70
2022-10-13T00:43:35.861Z,1017.74
2022-10-13T00:44:35.792Z,1017.66
2022-10-13T00:45:35.733Z,1017.67
2022-10-13T00:46:35.659Z,1017.69
2022-10-13T00:47:35.597Z,1017.68
2022-10-13T00:48:35.527Z,1017.69
2022-10-13T00:49:35.462Z,1017.68
2022-10-13T00:50:35.395Z,1017.72
2022-10-13T00:51:35.334Z,1017.71
2022-10-13T00:52:35.263Z,1017.70
2022-10-13T00:53:35.198Z,1017.69
2022-10-13T00:54:35.127Z,1017.72
2022-10-13T00:55:35.061Z,1017.69
2022-10-13T00:56:34.999Z,1017.69
2022-10-13T00:57:34.985Z,1017.68
2022-10-13T00:58:34.877Z,1017.69
2022-10-13T00:59:34.796Z,1017.67
2022-10-13T01:00:34.796Z,1017.66
2022-10-13T01:01:34.693Z,1017.71
2022-10-13T01:02:34.599Z,1017.66
2022-10-13T01:03:34.536Z,1017.64
2022-10-13T01:04:34.494Z,1017.68
2022-10-13T01:05:34.399Z,1017.68
2022-10-13T01:06:34.340Z,1017.71
2022-10-13T01:07:34.265Z,1017.72
2022-10-13T01:08:34.199Z,1017.70
2022-10-13T01:09:34.131Z,1017.69
2022-10-13T01:10:34.063Z,1017.67
2022-10-13T01:11:34.035Z,1017.68
2022-10-13T01:12:33.930Z,1017.69
2022-10-13T01:13:33.866Z,1017.67
2022-10-13T01:14:33.794Z,1017.65
2022-10-13T01:15:33.783Z,1017.66
2022-10-13T01:16:33.674Z,1017.71
2022-10-13T01:17:33.604Z,1017.64
2022-10-13T01:18:33.546Z,1017.63
2022-10-13T01:19:33.489Z,1017.66
2022-10-13T01:20:33.395Z,1017.67
2022-10-13T01:21:33.335Z,1017.65
2022-10-13T01:22:33.279Z,1017.66
2022-10-13T01:23:33.204Z,1017.62
2022-10-13T01:24:33.141Z,1017.63
2022-10-13T01:25:33.081Z,1017.58
2022-10-13T01:26:33.007Z,1017.61
2022-10-13T01:27:32.934Z,1017.61
2022-10-13T01:28:32.898Z,1017.60
2022-10-13T01:29:32.820Z,1017.57
2022-10-13T01:30:32.737Z,1017.58
2022-10-13T01:31:32.674Z,1017.55
2022-10-13T01:32:32.600Z,1017.54
2022-10-13T01:33:32.532Z,1017.54
2022-10-13T01:34:32.464Z,1017.52
2022-10-13T01:35:32.412Z,1017.52
2022-10-13T01:36:32.344Z,1017.54
2022-10-13T01:37:32.342Z,1017.53
2022-10-13T01:38:32.279Z,1017.46
2022-10-13T01:39:32.266Z,1017.48
2022-10-13T01:40:32.068Z,1017.42
2022-10-13T01:41:32.002Z,1017.49
2022-10-13T01:42:31.938Z,1017.45
2022-10-13T01:43:31.870Z,1017.37
2022-10-13T01:44:31.803Z,1017.39
2022-10-13T01:45:31.748Z,1017.39
2022-10-13T01:46:31.668Z,1017.40
2022-10-13T01:47:31.610Z,1017.39
2022-10-13T01:48:31.537Z,1017.38
2022-10-13T01:49:31.470Z,1017.40
2022-10-13T01:50:31.441Z,1017.35
2022-10-13T01:51:31.378Z,1017.43
2022-10-13T01:52:31.274Z,1017.37
2022-10-13T01:53:31.247Z,1017.35
2022-10-13T01:54:31.141Z,1017.35
2022-10-13T01:55:31.067Z,1017.31
2022-10-13T01:56:31.001Z,1017.31
2022-10-13T01:57:30.972Z,1017.25
2022-10-13T01:58:30.864Z,1017.29
2022-10-13T01:59:30.799Z,1017.21
2022-10-13T02:00:30.808Z,1017.22
2022-10-13T02:01:30.691Z,1017.25
2022-10-13T02:02:30.602Z,1017.25
2022-10-13T02:03:30.541Z,1017.25
2022-10-13T02:04:30.464Z,1017.29
2022-10-13T02:05:30.402Z,1017.25
2022-10-13T02:06:30.332Z,1017.22
2022-10-13T02:07:30.291Z,1017.22
2022-10-13T02:08:30.227Z,1017.24
2022-10-13T02:09:30.137Z,1017.18
2022-10-13T02:10:30.073Z,1017.21
2022-10-13T02:11:30.018Z,1017.20
2022-10-13T02:12:29.931Z,1017.17
2022-10-13T02:13:29.864Z,1017.14
2022-10-13T02:14:29.802Z,1017.16
2022-10-13T02:15:29.762Z,1017.10
2022-10-13T02:16:29.673Z,1017.11
2022-10-13T02:17:29.645Z,1017.10
2022-10-13T02:18:29.531Z,1017.14
2022-10-13T02:19:29.503Z,1017.12
2022-10-13T02:20:29.401Z,1017.09
2022-10-13T02:21:29.331Z,1017.11
2022-10-13T02:22:29.298Z,1017.08
2022-10-13T02:23:29.362Z,1017.05
2022-10-13T02:24:29.143Z,1017.10
2022-10-13T02:25:29.070Z,1017.06
2022-10-13T02:26:28.998Z,1017.07
2022-10-13T02:27:28.931Z,1017.07
2022-10-13T02:28:28.885Z,1017.08
2022-10-13T02:29:28.828Z,1017.04
2022-10-13T02:30:28.727Z,1017.03
2022-10-13T02:31:28.668Z,1017.02
2022-10-13T02:32:28.594Z,1017.01
2022-10-13T02:33:28.539Z,1017.02
2022-10-13T02:34:28.465Z,1016.97
2022-10-13T02:35:28.395Z,1016.98
2022-10-13T02:36:28.326Z,1016.99
2022-10-13T02:37:28.273Z,1016.99
2022-10-13T02:38:28.195Z,1016.94
2022-10-13T02:39:28.127Z,1016.95
2022-10-13T02:40:28.083Z,1016.95
2022-10-13T02:41:27.999Z,1016.93
2022-10-13T02:42:27.972Z,1016.92
2022-10-13T02:43:27.858Z,1016.91
2022-10-13T02:44:27.812Z,1016.91
2022-10-13T02:45:27.729Z,1016.88
2022-10-13T02:46:27.665Z,1016.87
2022-10-13T02:47:27.668Z,1016.82
2022-10-13T02:48:27.532Z,1016.84
2022-10-13T02:49:27.466Z,1016.80
2022-10-13T02:50:27.393Z,1016.78
2022-10-13T02:51:27.325Z,1016.77
2022-10-13T02:52:27.260Z,1016.77
2022-10-13T02:53:27.194Z,1016.70
2022-10-13T02:54:27.128Z,1016.76
2022-10-13T02:55:27.066Z,1016.72
2022-10-13T02:56:26.990Z,1016.74
2022-10-13T02:57:26.928Z,1016.71
2022-10-13T02:58:26.900Z,1016.73
2022-10-13T02:59:26.796Z,1016.70
2022-10-13T03:00:26.801Z,1016.71
2022-10-13T03:01:26.654Z,1016.71
2022-10-13T03:02:26.586Z,1016.71
2022-10-13T03:03:26.522Z,1016.76
2022-10-13T03:04:26.453Z,1016.72
2022-10-13T03:05:26.387Z,1016.74
2022-10-13T03:06:26.324Z,1016.73
2022-10-13T03:07:26.354Z,1016.72
2022-10-13T03:08:26.185Z,1016.72
2022-10-13T03:09:26.120Z,1016.67
2022-10-13T03:10:26.050Z,1016.69
2022-10-13T03:11:25.987Z,1016.67
2022-10-13T03:12:25.922Z,1016.67
2022-10-13T03:13:25.871Z,1016.66
2022-10-13T03:14:25.782Z,1016.72
2022-10-13T03:15:25.717Z,1016.69
2022-10-13T03:16:25.652Z,1016.66
2022-10-13T03:17:25.583Z,1016.66
2022-10-13T03:18:25.556Z,1016.62
2022-10-13T03:19:25.484Z,1016.65
2022-10-13T03:20:25.410Z,1016.64
2022-10-13T03:21:25.315Z,1016.67
2022-10-13T03:22:25.251Z,1016.63
2022-10-13T03:23:25.189Z,1016.60
2022-10-13T03:24:25.117Z,1016.59
2022-10-13T03:25:25.053Z,1016.62
2022-10-13T03:26:24.981Z,1016.61
2022-10-13T03:27:24.921Z,1016.66
2022-10-13T03:28:24.882Z,1016.68
2022-10-13T03:29:24.777Z,1016.66
2022-10-13T03:30:24.714Z,1016.70
2022-10-13T03:31:24.651Z,1016.66
2022-10-13T03:32:24.628Z,1016.66
2022-10-13T03:33:24.539Z,1016.65
2022-10-13T03:34:24.479Z,1016.70
2022-10-13T03:35:24.377Z,1016.63
2022-10-13T03:36:24.358Z,1016.62
2022-10-13T03:37:24.285Z,1016.62
2022-10-13T03:38:24.196Z,1016.59
2022-10-13T03:39:24.114Z,1016.57
2022-10-13T03:40:24.040Z,1016.63
2022-10-13T03:41:23.974Z,1016.58
2022-10-13T03:42:23.907Z,1016.57
2022-10-13T03:43:23.848Z,1016.55
2022-10-13T03:44:23.789Z,1016.54
2022-10-13T03:45:23.719Z,1016.52
2022-10-13T03:46:23.640Z,1016.51
2022-10-13T03:47:23.574Z,1016.52
2022-10-13T03:48:23.543Z,1016.46
2022-10-13T03:49:23.491Z,1016.51
2022-10-13T03:50:23.484Z,1016.50
2022-10-13T03:51:23.306Z,1016.45
2022-10-13T03:52:23.237Z,1016.47
2022-10-13T03:53:23.182Z,1016.45
2022-10-13T03:54:23.105Z,1016.45
2022-10-13T03:55:23.124Z,1016.40
2022-10-13T03:56:22.977Z,1016.45
2022-10-13T03:57:22.903Z,1016.44
2022-10-13T03:58:22.835Z,1016.42
2022-10-13T03:59:22.826Z,1016.44
2022-10-13T04:00:22.707Z,1016.43
2022-10-13T04:01:22.681Z,1016.40
2022-10-13T04:02:22.687Z,1016.42
2022-10-13T04:03:22.526Z,1016.44
2022-10-13T04:04:22.433Z,1016.36
2022-10-13T04:05:22.366Z,1016.37
2022-10-13T04:06:22.300Z,1016.38
2022-10-13T04:07:22.232Z,1016.29
2022-10-13T04:08:22.170Z,1016.37
2022-10-13T04:09:22.114Z,1016.36
2022-10-13T04:10:22.117Z,1016.35
2022-10-13T04:11:21.978Z,1016.37
2022-10-13T04:12:22.151Z,1016.36
2022-10-13T04:13:21.881Z,1016.32
2022-10-13T04:14:21.768Z,1016.31
2022-10-13T04:15:21.759Z,1016.30
2022-10-13T04:16:21.629Z,1016.27
2022-10-13T04:17:21.561Z,1016.26
2022-10-13T04:18:21.496Z,1016.29
2022-10-13T04:19:21.446Z,1016.32
2022-10-13T04:20:21.396Z,1016.30
2022-10-13T04:21:21.293Z,1016.31
2022-10-13T04:22:21.597Z,1016.32
2022-10-13T04:23:21.159Z,1016.36
2022-10-13T04:24:21.109Z,1016.37
2022-10-13T04:25:21.025Z,1016.35
2022-10-13T04:26:20.964Z,1016.33
2022-10-13T04:27:20.903Z,1016.34
2022-10-13T04:28:20.902Z,1016.40
2022-10-13T04:29:20.795Z,1016.39
2022-10-13T04:30:20.694Z,1016.34
2022-10-13T04:31:20.628Z,1016.35
2022-10-13T04:32:20.887Z,1016.39
2022-10-13T04:33:20.496Z,1016.33
2022-10-13T04:34:20.468Z,1016.30
2022-10-13T04:35:20.359Z,1016.35
2022-10-13T04:36:20.336Z,1016.31
2022-10-13T04:37:20.226Z,1016.27
2022-10-13T04:38:20.164Z,1016.26
2022-10-13T04:39:20.095Z,1016.26
2022-10-13T04:40:20.029Z,1016.27
2022-10-13T04:41:19.962Z,1016.27
2022-10-13T04:42:20.232Z,1016.25
2022-10-13T04:43:19.826Z,1016.22
2022-10-13T04:44:19.762Z,1016.20
2022-10-13T04:45:19.693Z,1016.21
2022-10-13T04:46:19.632Z,1016.18
2022-10-13T04:47:19.723Z,1016.19
2022-10-13T04:48:19.564Z,1016.16
2022-10-13T04:49:19.428Z,1016.12
2022-10-13T04:50:19.366Z,1016.16
2022-10-13T04:51:19.367Z,1016.13
2022-10-13T04:52:19.662Z,1016.17
2022-10-13T04:53:19.483Z,1016.12
2022-10-13T04:54:19.102Z,1016.14
2022-10-13T04:55:19.029Z,1016.16
2022-10-13T04:56:19.074Z,1016.14
2022-10-13T04:57:18.893Z,1016.12
2022-10-13T04:58:18.828Z,1016.12
2022-10-13T04:59:18.798Z,1016.12
2022-10-13T05:00:18.705Z,1016.12
2022-10-13T05:01:21.790Z,1016.10
2022-10-13T05:02:18.824Z,1016.06
2022-10-13T05:03:18.607Z,1016.07
2022-10-13T05:04:18.439Z,1016.09
2022-10-13T05:05:18.451Z,1016.08
2022-10-13T05:06:18.358Z,1016.09
2022-10-13T05:07:18.820Z,1016.09
2022-10-13T05:08:18.249Z,1016.05
2022-10-13T05:09:18.094Z,1016.06
2022-10-13T05:10:18.031Z,1016.08
2022-10-13T05:11:17.962Z,1016.04
2022-10-13T05:12:18.379Z,1016.05
2022-10-13T05:13:17.847Z,1016.07
2022-10-13T05:14:17.808Z,1016.07
2022-10-13T05:15:17.711Z,1016.07
2022-10-13T05:16:17.635Z,1016.06
2022-10-13T05:17:17.569Z,1016.05
2022-10-13T05:18:17.500Z,1016.06
2022-10-13T05:19:17.438Z,1016.06
2022-10-13T05:20:17.376Z,1016.04
2022-10-13T05:21:17.331Z,1016.04
2022-10-13T05:22:17.399Z,1016.08
2022-10-13T05:23:17.166Z,1016.05
2022-10-13T05:24:17.103Z,1015.97
2022-10-13T05:25:17.125Z,1015.99
2022-10-13T05:26:16.967Z,1015.99
2022-10-13T05:27:16.908Z,1015.99
2022-10-13T05:28:16.973Z,1016.03
2022-10-13T05:29:16.790Z,1016.00
2022-10-13T05:30:16.748Z,1016.02
2022-10-13T05:31:16.636Z,1015.99
2022-10-13T05:32:16.804Z,1015.96
2022-10-13T05:33:16.529Z,1015.99
2022-10-13T05:34:16.443Z,1015.99
2022-10-13T05:35:16.420Z,1015.94
2022-10-13T05:36:16.305Z,1015.98
2022-10-13T05:37:16.244Z,1015.99
2022-10-13T05:38:16.175Z,1015.96
2022-10-13T05:39:16.183Z,1015.95
2022-10-13T05:40:16.037Z,1015.96
2022-10-13T05:41:15.982Z,1015.93
2022-10-13T05:42:15.958Z,1015.92
2022-10-13T05:43:15.837Z,1015.88
2022-10-13T05:44:15.773Z,1015.94
2022-10-13T05:45:15.822Z,1015.88
2022-10-13T05:46:15.639Z,1015.92
2022-10-13T05:47:15.573Z,1015.91
2022-10-13T05:48:15.547Z,1015.91
2022-10-13T05:49:15.523Z,1015.90
2022-10-13T05:50:15.379Z,1015.91
2022-10-13T05:51:15.314Z,1015.90
2022-10-13T05:52:15.285Z,1015.94
2022-10-13T05:53:15.179Z,1015.91
2022-10-13T05:54:15.111Z,1015.91
2022-10-13T05:55:15.140Z,1015.95
2022-10-13T05:56:14.977Z,1015.94
2022-10-13T05:57:14.915Z,1015.93
2022-10-13T05:58:14.853Z,1015.92
2022-10-13T05:59:14.814Z,1015.93
2022-10-13T06:00:14.775Z,1015.88
2022-10-13T06:01:14.649Z,1015.91
2022-10-13T06:02:14.592Z,1015.91
2022-10-13T06:03:14.514Z,1015.89
2022-10-13T06:04:14.612Z,1015.89
2022-10-13T06:05:14.383Z,1015.87
2022-10-13T06:06:14.318Z,1015.89
2022-10-13T06:07:14.282Z,1015.88
2022-10-13T06:08:14.190Z,1015.98
2022-10-13T06:09:14.122Z,1015.96
2022-10-13T06:10:14.060Z,1015.95
2022-10-13T06:11:14.010Z,1015.95
2022-10-13T06:12:13.920Z,1015.94
2022-10-13T06:13:13.880Z,1015.92
2022-10-13T06:14:13.849Z,1015.93
2022-10-13T06:15:13.725Z,1015.98
2022-10-13T06:16:13.663Z,1015.96
2022-10-13T06:17:13.640Z,1015.97
2022-10-13T06:18:13.532Z,1015.98
2022-10-13T06:19:13.460Z,1015.96
2022-10-13T06:20:13.395Z,1015.94
2022-10-13T06:21:13.329Z,1015.93
2022-10-13T06:22:13.263Z,1015.91
2022-10-13T06:23:13.196Z,1015.94
2022-10-13T06:24:13.171Z,1015.93
2022-10-13T06:25:13.092Z,1015.90
2022-10-13T06:26:13.032Z,1015.92
2022-10-13T06:27:12.964Z,1015.93
2022-10-13T06:28:12.913Z,1015.93
2022-10-13T06:29:12.870Z,1015.97
2022-10-13T06:30:12.768Z,1015.95
2022-10-13T06:31:12.673Z,1015.93
2022-10-13T06:32:12.609Z,1015.99
2022-10-13T06:33:12.599Z,1015.96
2022-10-13T06:34:12.471Z,1015.97
2022-10-13T06:35:12.432Z,1015.97
2022-10-13T06:36:12.352Z,1015.97
2022-10-13T06:37:12.303Z,1015.96
2022-10-13T06:38:12.238Z,1015.90
2022-10-13T06:39:12.146Z,1015.93
2022-10-13T06:40:12.087Z,1015.93
2022-10-13T06:41:12.039Z,1015.91
2022-10-13T06:42:12.053Z,1015.96
2022-10-13T06:43:11.881Z,1015.92
2022-10-13T06:44:11.816Z,1015.94
2022-10-13T06:45:11.754Z,1015.93
2022-10-13T06:46:11.684Z,1015.93
2022-10-13T06:47:11.665Z,1015.91
2022-10-13T06:48:11.585Z,1015.95
2022-10-13T06:49:11.491Z,1015.95
2022-10-13T06:50:11.429Z,1015.95
2022-10-13T06:51:11.392Z,1015.93
2022-10-13T06:52:11.289Z,1015.95
2022-10-13T06:53:11.224Z,1015.93
2022-10-13T06:54:11.161Z,1015.93
2022-10-13T06:55:11.096Z,1015.90
2022-10-13T06:56:11.033Z,1015.90
2022-10-13T06:57:10.963Z,1015.91
2022-10-13T06:58:10.898Z,1015.97
2022-10-13T06:59:10.832Z,1015.98
2022-10-13T07:00:10.768Z,1015.94
2022-10-13T07:01:10.714Z,1015.97
2022-10-13T07:02:10.641Z,1015.91
2022-10-13T07:03:10.571Z,1015.98
2022-10-13T07:04:10.513Z,1015.93
2022-10-13T07:05:10.442Z,1015.93
2022-10-13T07:06:10.376Z,1015.88
2022-10-13T07:07:10.309Z,1015.91
2022-10-13T07:08:10.247Z,1015.93
2022-10-13T07:09:10.186Z,1015.89
2022-10-13T07:10:10.114Z,1015.94
2022-10-13T07:11:15.306Z,1015.93
2022-10-13T07:12:09.987Z,1015.90
2022-10-13T07:13:09.985Z,1015.93
2022-10-13T07:14:09.857Z,1015.91
2022-10-13T07:15:09.794Z,1015.91
2022-10-13T07:16:09.725Z,1015.88
2022-10-13T07:17:09.660Z,1015.84
2022-10-13T07:18:09.597Z,1015.80
2022-10-13T07:19:09.529Z,1015.80
2022-10-13T07:20:09.469Z,1015.76
2022-10-13T07:21:09.404Z,1015.72
2022-10-13T07:22:09.377Z,1015.67
2022-10-13T07:23:09.274Z,1015.73
2022-10-13T07:24:09.211Z,1015.76
2022-10-13T07:25:09.146Z,1015.74
2022-10-13T07:26:09.081Z,1015.72
2022-10-13T07:27:09.029Z,1015.71
2022-10-13T07:28:08.951Z,1015.71
2022-10-13T07:29:08.941Z,1015.70
2022-10-13T07:30:08.822Z,1015.71
2022-10-13T07:31:08.757Z,1015.72
2022-10-13T07:32:08.696Z,1015.71
2022-10-13T07:33:08.633Z,1015.77
2022-10-13T07:34:08.567Z,1015.77
2022-10-13T07:35:08.501Z,1015.76
2022-10-13T07:36:08.439Z,1015.75
2022-10-13T07:37:08.376Z,1015.75
2022-10-13T07:38:08.314Z,1015.72
2022-10-13T07:39:08.252Z,1015.65
2022-10-13T07:40:08.189Z,1015.69
2022-10-13T07:41:08.127Z,1015.70
2022-10-13T07:42:08.063Z,1015.64
2022-10-13T07:43:07.999Z,1015.67
2022-10-13T07:44:07.935Z,1015.66
2022-10-13T07:45:07.871Z,1015.63
2022-10-13T07:46:07.804Z,1015.63
2022-10-13T07:47:07.746Z,1015.67
2022-10-13T07:48:07.726Z,1015.66
2022-10-13T07:49:10.137Z,1015.69
2022-10-13T07:50:07.568Z,1015.67
2022-10-13T07:51:07.499Z,1015.69
2022-10-13T07:52:07.439Z,1015.71
2022-10-13T07:53:07.369Z,1015.70
2022-10-13T07:54:07.299Z,1015.69
2022-10-13T07:55:07.291Z,1015.72
2022-10-13T07:56:07.176Z,1015.72
2022-10-13T07:57:07.129Z,1015.74
2022-10-13T07:58:07.047Z,1015.75
2022-10-13T07:59:06.985Z,1015.76
2022-10-13T08:00:06.923Z,1015.72
2022-10-13T08:01:06.863Z,1015.72
2022-10-13T08:02:06.806Z,1015.76
2022-10-13T08:03:06.739Z,1015.77
2022-10-13T08:04:06.802Z,1015.77
2022-10-13T08:05:06.615Z,1015.81
2022-10-13T08:06:06.548Z,1015.74
2022-10-13T08:07:06.494Z,1015.72
2022-10-13T08:08:06.425Z,1015.70
2022-10-13T08:09:06.365Z,1015.70
2022-10-13T08:10:06.407Z,1015.71
2022-10-13T08:11:06.245Z,1015.66
2022-10-13T08:12:06.180Z,1015.64
2022-10-13T08:13:06.120Z,1015.64
2022-10-13T08:14:06.058Z,1015.63
2022-10-13T08:15:06.582Z,1015.61
2022-10-13T08:16:05.985Z,1015.56
2022-10-13T08:17:05.876Z,1015.54
2022-10-13T08:18:05.829Z,1015.53
2022-10-13T08:19:05.751Z,1015.54
2022-10-13T08:20:05.694Z,1015.54
2022-10-13T08:22:09.590Z,1015.50
2022-10-13T08:23:05.516Z,1015.52
2022-10-13T08:24:05.459Z,1015.52
2022-10-13T08:25:05.393Z,1015.55
2022-10-13T08:26:05.332Z,1015.52
2022-10-13T08:27:05.271Z,1015.51
2022-10-13T08:28:05.204Z,1015.51
2022-10-13T08:29:22.372Z,1015.52
2022-10-13T08:30:05.176Z,1015.51
2022-10-13T08:31:05.239Z,1015.49
2022-10-13T08:32:04.963Z,1015.49
2022-10-13T08:33:04.925Z,1015.53
2022-10-13T08:34:04.846Z,1015.53
2022-10-13T08:35:04.782Z,1015.50
2022-10-13T08:36:04.723Z,1015.46
2022-10-13T08:37:04.662Z,1015.50
2022-10-13T08:38:04.598Z,1015.48
2022-10-13T08:39:04.546Z,1015.46
2022-10-13T08:40:04.481Z,1015.46
2022-10-13T08:41:04.418Z,1015.49
2022-10-13T08:42:04.356Z,1015.45
2022-10-13T08:43:04.293Z,1015.46
2022-10-13T08:44:49.470Z,1015.46
2022-10-13T08:45:39.385Z,1015.43
2022-10-13T08:46:04.111Z,1015.44
2022-10-13T08:47:04.056Z,1015.38
2022-10-13T08:48:03.988Z,1015.40
2022-10-13T08:49:03.944Z,1015.41
2022-10-13T08:50:03.872Z,1015.41
2022-10-13T08:51:03.808Z,1015.44
2022-10-13T08:52:03.754Z,1015.45
2022-10-13T08:53:03.701Z,1015.46
2022-10-13T08:54:03.631Z,1015.41
2022-10-13T08:55:03.574Z,1015.41
2022-10-13T08:56:03.508Z,1015.40
2022-10-13T08:57:03.446Z,1015.38
2022-10-13T08:58:03.384Z,1015.36
2022-10-13T08:59:03.322Z,1015.38
2022-10-13T09:00:03.268Z,1015.43
2022-10-13T09:01:03.207Z,1015.42
2022-10-13T09:02:03.231Z,1015.37
2022-10-13T09:03:03.087Z,1015.36
2022-10-13T09:04:03.025Z,1015.29
2022-10-13T09:05:02.963Z,1015.33
2022-10-13T09:06:02.901Z,1015.31
2022-10-13T09:07:02.841Z,1015.28
2022-10-13T09:08:02.782Z,1015.23
2022-10-13T09:09:02.736Z,1015.27
2022-10-13T09:10:02.665Z,1015.25
2022-10-13T09:11:02.608Z,1015.28
2022-10-13T09:12:02.555Z,1015.30
2022-10-13T09:13:02.491Z,1015.26
2022-10-13T09:14:02.420Z,1015.28
2022-10-13T09:15:02.362Z,1015.26
2022-10-13T09:16:02.307Z,1015.30
2022-10-13T09:17:02.267Z,1015.25
2022-10-13T09:18:02.185Z,1015.24
2022-10-13T09:19:02.126Z,1015.22
2022-10-13T09:20:02.073Z,1015.21
2022-10-13T09:21:02.006Z,1015.20
2022-10-13T09:22:01.948Z,1015.19
2022-10-13T09:23:01.883Z,1015.21
2022-10-13T09:24:01.826Z,1015.22
2022-10-13T09:25:01.765Z,1015.22
2022-10-13T09:26:01.702Z,1015.22
2022-10-13T09:27:01.646Z,1015.21
2022-10-13T09:28:01.589Z,1015.21
2022-10-13T09:29:01.587Z,1015.20
2022-10-13T09:30:01.463Z,1015.27
2022-10-13T09:31:01.413Z,1015.24
2022-10-13T09:32:01.347Z,1015.25
2022-10-13T09:33:01.362Z,1015.20
2022-10-13T09:34:01.231Z,1015.24
2022-10-13T09:35:01.200Z,1015.25
2022-10-13T09:36:01.101Z,1015.30
2022-10-13T09:37:01.039Z,1015.28
2022-10-13T09:38:01.033Z,1015.25
2022-10-13T09:39:00.917Z,1015.26
2022-10-13T09:40:00.854Z,1015.28
2022-10-13T09:41:00.798Z,1015.25
2022-10-13T09:42:00.739Z,1015.22
2022-10-13T09:43:00.673Z,1015.21
2022-10-13T09:44:00.616Z,1015.22
2022-10-13T09:45:00.552Z,1015.21
2022-10-13T09:46:00.523Z,1015.22
2022-10-13T09:47:00.433Z,1015.25
2022-10-13T09:48:00.369Z,1015.28
2022-10-13T09:49:00.311Z,1015.25
2022-10-13T09:50:06.333Z,1015.28
2022-10-13T09:51:00.187Z,1015.28
2022-10-13T09:52:00.132Z,1015.28
2022-10-13T09:53:00.082Z,1015.26
2022-10-13T09:54:00.003Z,1015.25
2022-10-13T09:54:59.943Z,1015.24
2022-10-13T09:55:59.882Z,1015.22
2022-10-13T09:56:59.818Z,1015.25
2022-10-13T09:57:59.804Z,1015.25
2022-10-13T09:58:59.695Z,1015.20
2022-10-13T09:59:59.635Z,1015.26
2022-10-13T10:00:59.576Z,1015.28
2022-10-13T10:01:59.514Z,1015.29
2022-10-13T10:02:59.454Z,1015.25
2022-10-13T10:03:59.488Z,1015.26
2022-10-13T10:04:59.332Z,1015.28
2022-10-13T10:05:59.319Z,1015.29
2022-10-13T10:06:59.209Z,1015.26
2022-10-13T10:07:59.147Z,1015.28
2022-10-13T10:09:03.258Z,1015.30
2022-10-13T10:09:59.025Z,1015.28
2022-10-13T10:10:58.965Z,1015.29
2022-10-13T10:11:58.902Z,1015.34
2022-10-13T10:12:58.858Z,1015.32
2022-10-13T10:13:58.783Z,1015.30
2022-10-13T10:14:58.722Z,1015.27
2022-10-13T10:15:58.662Z,1015.24
2022-10-13T10:16:58.602Z,1015.27
2022-10-13T10:17:58.585Z,1015.25
2022-10-13T10:18:59.031Z,1015.25
2022-10-13T10:19:58.417Z,1015.21
2022-10-13T10:20:58.358Z,1015.23
2022-10-13T10:21:58.302Z,1015.17
2022-10-13T10:22:58.237Z,1015.19
2022-10-13T10:23:58.175Z,1015.18
2022-10-13T10:24:58.117Z,1015.17
2022-10-13T10:25:58.059Z,1015.17
2022-10-13T10:26:57.999Z,1015.12
2022-10-13T10:27:58.002Z,1015.05
2022-10-13T10:28:57.964Z,1015.05
2022-10-13T10:29:57.811Z,1015.04
2022-10-13T10:30:57.754Z,1015.02
2022-10-13T10:31:57.692Z,1014.99
2022-10-13T10:32:57.633Z,1015.00
2022-10-13T10:33:57.578Z,1015.01
2022-10-13T10:34:57.526Z,1014.99
2022-10-13T10:35:57.448Z,1015.00
2022-10-13T10:36:57.392Z,1014.98
2022-10-13T10:37:57.326Z,1015.00
2022-10-13T10:38:57.270Z,1015.01
2022-10-13T10:39:57.213Z,1015.03
2022-10-13T10:40:57.163Z,1015.03
2022-10-13T10:41:57.099Z,1015.00
2022-10-13T10:42:57.029Z,1014.96
2022-10-13T10:43:56.974Z,1014.91
2022-10-13T10:44:56.912Z,1014.92
2022-10-13T10:45:56.854Z,1014.86
2022-10-13T10:46:56.792Z,1014.86
2022-10-13T10:47:56.733Z,1014.84
2022-10-13T10:48:56.676Z,1014.82
2022-10-13T10:49:56.611Z,1014.83
2022-10-13T10:50:56.555Z,1014.86
2022-10-13T10:51:56.498Z,1014.83
2022-10-13T10:52:56.436Z,1014.84
2022-10-13T10:53:56.376Z,1014.81
2022-10-13T10:54:56.371Z,1014.85
2022-10-13T10:55:56.258Z,1014.83
2022-10-13T10:56:56.207Z,1014.78
2022-10-13T10:57:56.141Z,1014.75
2022-10-13T10:58:56.082Z,1014.77
2022-10-13T10:59:56.017Z,1014.75
2022-10-13T11:00:55.959Z,1014.78
2022-10-13T11:01:55.969Z,1014.72
2022-10-13T11:02:55.843Z,1014.71
2022-10-13T11:03:55.779Z,1014.67
2022-10-13T11:04:55.721Z,1014.67
2022-10-13T11:05:55.661Z,1014.64
2022-10-13T11:06:55.614Z,1014.62
2022-10-13T11:07:55.544Z,1014.58
2022-10-13T11:08:55.482Z,1014.60
2022-10-13T11:09:55.425Z,1014.61
2022-10-13T11:10:55.369Z,1014.57
2022-10-13T11:11:55.302Z,1014.59
2022-10-13T11:12:55.247Z,1014.57
2022-10-13T11:13:55.186Z,1014.55
2022-10-13T11:14:55.125Z,1014.54
2022-10-13T11:15:55.062Z,1014.52
2022-10-13T11:16:55.027Z,1014.51
2022-10-13T11:17:54.950Z,1014.56
2022-10-13T11:18:54.893Z,1014.55
2022-10-13T11:19:54.828Z,1014.57
2022-10-13T11:20:54.774Z,1014.50
2022-10-13T11:21:54.708Z,1014.51
2022-10-13T11:22:54.650Z,1014.52
2022-10-13T11:23:58.458Z,1014.52
2022-10-13T11:24:54.539Z,1014.56
2022-10-13T11:25:54.465Z,1014.50
2022-10-13T11:26:54.413Z,1014.51
2022-10-13T11:27:54.350Z,1014.52
2022-10-13T11:28:54.410Z,1014.40
2022-10-13T11:29:54.236Z,1014.45
2022-10-13T11:30:54.179Z,1014.42
2022-10-13T11:31:54.123Z,1014.48
2022-10-13T11:32:54.057Z,1014.51
2022-10-13T11:33:53.994Z,1014.49
2022-10-13T11:34:53.930Z,1014.46
2022-10-13T11:35:53.869Z,1014.46
2022-10-13T11:36:53.857Z,1014.42
2022-10-13T11:38:05.851Z,1014.39
2022-10-13T11:38:53.696Z,1014.33
2022-10-13T11:39:53.631Z,1014.36
2022-10-13T11:40:53.590Z,1014.38
2022-10-13T11:41:53.518Z,1014.34
2022-10-13T11:42:56.871Z,1014.30
2022-10-13T11:43:53.403Z,1014.28
2022-10-13T11:44:53.334Z,1014.21
2022-10-13T11:45:53.271Z,1014.20
2022-10-13T11:46:53.211Z,1014.19
2022-10-13T11:47:53.151Z,1014.20
2022-10-13T11:48:53.092Z,1014.18
2022-10-13T11:49:53.038Z,1014.17
2022-10-13T11:50:52.972Z,1014.16
2022-10-13T11:51:52.908Z,1014.15
2022-10-13T11:52:52.856Z,1014.12
2022-10-13T11:53:52.792Z,1014.14
2022-10-13T11:54:52.730Z,1014.14
2022-10-13T11:55:52.669Z,1014.12
2022-10-13T11:56:52.616Z,1014.14
2022-10-13T11:57:52.570Z,1014.07
2022-10-13T11:58:52.490Z,1014.06
2022-10-13T11:59:52.430Z,1014.06
2022-10-13T12:00:52.367Z,1014.05
2022-10-13T12:01:52.306Z,1013.94
2022-10-13T12:02:52.424Z,1013.96
2022-10-13T12:03:52.189Z,1013.98
2022-10-13T12:04:52.126Z,1013.90
2022-10-13T12:05:52.067Z,1013.96